Terminal Aerodrome Forecast
Issued by NWS Shreveport, LA

Home | Current Version | Previous Version | Text Only | Print | Product List | Glossary On
Versions: 1 2 3 4 5 6 7 8 9 10 11 12 13 14 15 16 17 18 19 20 21
000
FTUS44 KSHV 261700 RRA
TAFMLU
TAF
KMLU 261749Z 2618/2718 21006KT 6SM HZ FEW035 FEW300
     FM262100 19008KT P6SM SCT045 SCT300
     FM270100 18004KT P6SM SKC
     FM270900 21006KT 5SM BR SCT300
     FM271400 24008KT 5SM HZ SCT040 SCT300=

USA.gov is the U.S. government's official web portal to all federal, state and local government web resources and services.